createdAt,value
2022-11-12T00:00:04.603Z,31.80
2022-11-12T00:02:51.395Z,35.88
2022-11-12T00:05:38.293Z,29.15
2022-11-12T00:08:26.156Z,21.90
2022-11-12T00:11:12.892Z,22.50
2022-11-12T00:13:59.757Z,22.20
2022-11-12T00:16:46.227Z,19.83
2022-11-12T00:19:33.211Z,17.80
2022-11-12T00:22:21.061Z,20.35
2022-11-12T00:25:08.844Z,17.42
2022-11-12T00:28:00.887Z,23.58
2022-11-12T00:30:47.736Z,19.55
2022-11-12T00:33:34.152Z,24.00
2022-11-12T00:36:20.738Z,19.10
2022-11-12T00:39:08.395Z,24.23
2022-11-12T00:41:55.705Z,25.75
2022-11-12T00:44:42.101Z,21.17
2022-11-12T00:47:28.783Z,22.00
2022-11-12T00:50:16.393Z,18.35
2022-11-12T00:53:03.609Z,19.42
2022-11-12T00:55:50.044Z,18.17
2022-11-12T00:58:37.052Z,21.67
2022-11-12T01:01:23.409Z,21.17
2022-11-12T01:04:10.666Z,32.83
2022-11-12T01:06:57.500Z,23.92
2022-11-12T01:09:43.940Z,42.80
2022-11-12T01:12:32.266Z,38.67
2022-11-12T01:15:19.343Z,40.75
2022-11-12T01:18:06.470Z,38.83
2022-11-12T01:20:52.933Z,41.58
2022-11-12T01:23:43.416Z,35.72
2022-11-12T01:26:29.829Z,38.05
2022-11-12T01:29:17.095Z,39.65
2022-11-12T01:32:04.119Z,35.72
2022-11-12T01:34:51.839Z,35.75
2022-11-12T01:37:38.996Z,34.50
2022-11-12T01:40:26.009Z,41.47
2022-11-12T01:43:13.845Z,36.50
2022-11-12T01:46:05.275Z,28.15
2022-11-12T01:49:04.740Z,24.90
2022-11-12T01:51:56.687Z,27.02
2022-11-12T01:54:49.773Z,25.52
2022-11-12T01:58:12.965Z,31.05
2022-11-12T02:01:01.507Z,29.00
2022-11-12T02:03:48.637Z,28.55
2022-11-12T02:06:37.216Z,23.45
2022-11-12T02:09:24.581Z,20.10
2022-11-12T02:12:31.364Z,20.13
2022-11-12T02:15:40.803Z,18.02
2022-11-12T02:18:28.620Z,22.45
2022-11-12T02:21:20.757Z,22.05
2022-11-12T02:24:27.762Z,21.33
2022-11-12T02:27:14.344Z,17.70
2022-11-12T02:30:00.941Z,21.15
2022-11-12T02:32:48.241Z,18.67
2022-11-12T02:35:35.562Z,20.67
2022-11-12T02:38:22.007Z,19.80
2022-11-12T02:41:08.761Z,21.25
2022-11-12T02:43:56.247Z,19.60
2022-11-12T02:46:43.299Z,19.83
2022-11-12T02:49:30.705Z,19.35
2022-11-12T02:52:17.534Z,19.88
2022-11-12T02:55:05.501Z,24.08
2022-11-12T02:57:52.187Z,22.67
2022-11-12T03:00:39.230Z,22.15
2022-11-12T03:03:26.568Z,23.30
2022-11-12T03:06:13.585Z,21.20
2022-11-12T03:09:00.159Z,22.63
2022-11-12T03:11:47.496Z,20.35
2022-11-12T03:14:35.116Z,19.73
2022-11-12T03:17:21.536Z,22.17
2022-11-12T03:20:08.748Z,16.38
2022-11-12T03:23:04.775Z,17.25
2022-11-12T03:25:51.266Z,15.20
2022-11-12T03:28:38.020Z,16.55
2022-11-12T03:31:24.503Z,15.82
2022-11-12T03:34:11.987Z,13.68
2022-11-12T03:36:59.149Z,16.27
2022-11-12T03:39:45.698Z,16.35
2022-11-12T03:42:32.755Z,14.77
2022-11-12T03:45:22.204Z,18.27
2022-11-12T03:48:09.296Z,17.02
2022-11-12T03:51:00.039Z,13.38
2022-11-12T03:53:47.325Z,16.25
2022-11-12T03:56:34.727Z,10.90
2022-11-12T03:59:21.356Z,13.20
2022-11-12T04:02:08.336Z,11.95
2022-11-12T04:05:14.159Z,14.10
2022-11-12T04:08:22.078Z,12.75
2022-11-12T04:11:14.786Z,15.40
2022-11-12T04:14:01.525Z,12.47
2022-11-12T04:17:06.598Z,13.73
2022-11-12T04:20:12.212Z,12.07
2022-11-12T04:22:58.915Z,12.73
2022-11-12T04:26:04.532Z,15.18
2022-11-12T04:32:21.869Z,13.88
2022-11-12T04:35:10.104Z,12.45
2022-11-12T04:37:56.894Z,16.02
2022-11-12T04:41:06.990Z,14.85
2022-11-12T04:44:12.133Z,11.07
2022-11-12T04:47:00.219Z,10.52
2022-11-12T04:49:46.734Z,12.23
2022-11-12T04:52:33.230Z,10.73
2022-11-12T04:55:19.608Z,14.00
2022-11-12T04:58:06.177Z,9.02
2022-11-12T05:00:52.716Z,12.35
2022-11-12T05:03:39.195Z,13.20
2022-11-12T05:06:44.073Z,13.00
2022-11-12T05:09:31.029Z,11.85
2022-11-12T05:12:17.482Z,12.10
2022-11-12T05:15:05.078Z,18.58
2022-11-12T05:17:52.312Z,13.52
2022-11-12T05:20:38.991Z,15.43
2022-11-12T05:23:25.717Z,13.35
2022-11-12T05:26:12.631Z,15.40
2022-11-12T05:28:59.135Z,13.88
2022-11-12T05:31:46.553Z,14.15
2022-11-12T05:34:33.382Z,13.55
2022-11-12T05:37:19.776Z,12.07
2022-11-12T05:40:06.980Z,14.80
2022-11-12T05:42:53.525Z,15.05
2022-11-12T05:45:43.490Z,15.38
2022-11-12T05:48:30.383Z,13.88
2022-11-12T05:51:16.978Z,17.13
2022-11-12T05:54:04.103Z,16.30
2022-11-12T05:56:52.955Z,16.05
2022-11-12T05:59:39.750Z,18.60
2022-11-12T06:02:26.313Z,17.85
2022-11-12T06:05:13.187Z,17.13
2022-11-12T06:08:00.350Z,19.15
2022-11-12T06:10:54.700Z,17.75
2022-11-12T06:13:41.221Z,27.42
2022-11-12T06:16:28.341Z,28.15
2022-11-12T06:19:14.729Z,19.48
2022-11-12T06:22:01.304Z,14.63
2022-11-12T06:24:47.974Z,33.75
2022-11-12T06:27:34.520Z,14.27
2022-11-12T06:30:25.531Z,13.35
2022-11-12T06:33:12.248Z,13.90
2022-11-12T06:36:03.233Z,14.75
2022-11-12T06:38:50.134Z,14.85
2022-11-12T06:41:36.660Z,11.65
2022-11-12T06:44:23.619Z,11.48
2022-11-12T06:47:13.217Z,10.80
2022-11-12T06:49:59.810Z,13.80
2022-11-12T06:52:46.491Z,16.60
2022-11-12T06:55:33.831Z,13.95
2022-11-12T06:58:20.295Z,14.30
2022-11-12T07:01:18.430Z,12.93
2022-11-12T07:04:05.466Z,16.23
2022-11-12T07:06:52.499Z,12.35
2022-11-12T07:09:38.856Z,9.30
2022-11-12T07:12:25.848Z,11.43
2022-11-12T07:15:12.329Z,10.55
2022-11-12T07:17:59.300Z,10.43
2022-11-12T07:20:45.859Z,18.17
2022-11-12T07:23:34.058Z,29.33
2022-11-12T07:26:23.152Z,22.55
2022-11-12T07:29:10.251Z,21.55
2022-11-12T07:31:57.169Z,20.58
2022-11-12T07:34:43.785Z,20.55
2022-11-12T07:37:31.422Z,10.93
2022-11-12T07:40:17.743Z,11.27
2022-11-12T07:43:04.227Z,9.70
2022-11-12T07:45:50.847Z,13.70
2022-11-12T07:48:37.931Z,12.43
2022-11-12T07:51:27.136Z,11.02
2022-11-12T07:54:14.096Z,13.13
2022-11-12T07:57:00.789Z,13.00
2022-11-12T07:59:47.974Z,12.45
2022-11-12T08:02:34.189Z,15.95
2022-11-12T08:05:21.602Z,34.63
2022-11-12T08:08:08.774Z,23.27
2022-11-12T08:10:59.424Z,22.05
2022-11-12T08:13:46.129Z,20.77
2022-11-12T08:16:33.065Z,19.95
2022-11-12T08:19:19.399Z,23.23
2022-11-12T08:22:06.359Z,23.10
2022-11-12T08:24:53.107Z,27.17
2022-11-12T08:27:40.087Z,26.65
2022-11-12T08:30:27.982Z,23.00
2022-11-12T08:33:14.626Z,25.08
2022-11-12T08:36:09.681Z,22.02
2022-11-12T08:39:46.642Z,19.27
2022-11-12T08:42:33.204Z,19.52
2022-11-12T08:45:19.947Z,15.13
2022-11-12T08:48:09.900Z,19.45
2022-11-12T08:50:57.028Z,30.98
2022-11-12T08:53:44.716Z,12.85
2022-11-12T08:56:34.140Z,12.27
2022-11-12T08:59:20.749Z,16.98
2022-11-12T09:02:15.199Z,16.08
2022-11-12T09:05:01.743Z,17.02
2022-11-12T09:07:50.335Z,23.98
2022-11-12T09:10:38.347Z,23.42
2022-11-12T09:13:25.779Z,21.83
2022-11-12T09:16:37.139Z,22.85
2022-11-12T09:19:23.752Z,30.38
2022-11-12T09:22:35.149Z,30.08
2022-11-12T09:25:22.231Z,38.03
2022-11-12T09:28:13.997Z,47.20
2022-11-12T09:31:00.547Z,40.70
2022-11-12T09:33:47.155Z,41.50
2022-11-12T09:37:48.341Z,41.45
2022-11-12T09:41:00.210Z,37.53
2022-11-12T09:43:53.611Z,37.42
2022-11-12T09:47:26.755Z,40.58
2022-11-12T09:50:31.179Z,46.42
2022-11-12T09:53:24.174Z,41.53
2022-11-12T09:56:13.690Z,41.65
2022-11-12T09:59:00.675Z,46.30
2022-11-12T10:01:56.973Z,45.05
2022-11-12T10:05:18.137Z,50.60
2022-11-12T10:08:19.427Z,52.40
2022-11-12T10:11:53.458Z,52.55
2022-11-12T10:14:45.678Z,40.60
2022-11-12T10:17:45.812Z,35.90
2022-11-12T10:20:38.841Z,38.47
2022-11-12T10:23:29.979Z,34.72
2022-11-12T10:26:18.915Z,39.53
2022-11-12T10:29:11.977Z,40.63
2022-11-12T10:32:02.746Z,40.53
2022-11-12T10:34:49.549Z,40.15
2022-11-12T10:37:55.213Z,39.15
2022-11-12T10:40:42.700Z,42.78
2022-11-12T10:43:30.173Z,40.33
2022-11-12T10:46:22.608Z,39.53
2022-11-12T10:49:14.916Z,42.55
2022-11-12T10:52:01.774Z,40.75
2022-11-12T10:54:53.924Z,42.50
2022-11-12T10:57:42.358Z,47.28
2022-11-12T11:00:29.693Z,47.28
2022-11-12T11:03:22.256Z,43.05
2022-11-12T11:06:14.613Z,50.50
2022-11-12T11:09:13.550Z,51.42
2022-11-12T11:12:00.997Z,49.08
2022-11-12T11:14:47.286Z,48.10
2022-11-12T11:17:34.973Z,54.63
2022-11-12T11:20:48.284Z,53.30
2022-11-12T11:23:50.364Z,55.42
2022-11-12T11:26:50.132Z,49.08
2022-11-12T11:30:14.963Z,46.20
2022-11-12T11:33:26.189Z,45.45
2022-11-12T11:36:12.519Z,42.78
2022-11-12T11:39:20.750Z,37.55
2022-11-12T11:42:36.364Z,40.88
2022-11-12T11:45:41.203Z,44.33
2022-11-12T11:48:54.153Z,37.25
2022-11-12T11:51:58.001Z,45.47
2022-11-12T11:54:58.778Z,47.47
2022-11-12T11:58:04.943Z,40.38
2022-11-12T12:01:14.623Z,52.03
2022-11-12T12:04:22.343Z,52.20
2022-11-12T12:07:32.207Z,52.13
2022-11-12T12:11:07.047Z,51.03
2022-11-12T12:14:16.973Z,40.05
2022-11-12T12:17:34.802Z,53.78
2022-11-12T12:20:25.544Z,53.95
2022-11-12T12:23:21.501Z,53.30
2022-11-12T12:26:22.900Z,52.45
2022-11-12T12:29:34.502Z,58.95
2022-11-12T12:32:33.541Z,65.18
2022-11-12T12:35:33.156Z,56.58
2022-11-12T12:38:32.737Z,64.95
2022-11-12T12:41:28.026Z,52.58
2022-11-12T12:44:15.845Z,51.88
2022-11-12T12:47:03.141Z,56.70
2022-11-12T12:49:50.902Z,53.17
2022-11-12T12:53:22.183Z,58.25
2022-11-12T12:56:14.683Z,60.08
2022-11-12T12:59:04.643Z,57.67
2022-11-12T13:02:02.496Z,65.97
2022-11-12T13:04:57.985Z,60.13
2022-11-12T13:07:49.046Z,59.38
2022-11-12T13:10:41.546Z,56.05
2022-11-12T13:13:32.585Z,51.58
2022-11-12T13:16:49.832Z,63.40
2022-11-12T13:19:43.910Z,51.03
2022-11-12T13:22:48.875Z,50.42
2022-11-12T13:28:22.377Z,48.33
2022-11-12T13:31:27.390Z,55.40
2022-11-12T13:34:18.888Z,70.10
2022-11-12T13:37:07.076Z,69.45
2022-11-12T13:39:53.966Z,72.53
2022-11-12T13:42:50.225Z,67.18
2022-11-12T13:46:18.646Z,59.30
2022-11-12T13:49:12.116Z,84.63
2022-11-12T13:52:00.851Z,101.97
2022-11-12T13:54:47.407Z,103.25
2022-11-12T13:57:34.525Z,88.25
2022-11-12T14:00:26.887Z,81.72
2022-11-12T14:03:19.348Z,77.90
2022-11-12T14:06:16.177Z,79.43
2022-11-12T14:09:12.104Z,66.72
2022-11-12T14:12:23.302Z,66.53
2022-11-12T14:15:19.603Z,67.30
2022-11-12T14:18:35.378Z,74.38
2022-11-12T14:21:22.760Z,66.15
2022-11-12T14:24:13.637Z,62.92
2022-11-12T14:27:00.313Z,105.60
2022-11-12T14:29:48.599Z,56.65
2022-11-12T14:32:39.490Z,46.35
2022-11-12T14:35:30.283Z,50.75
2022-11-12T14:38:31.995Z,62.92
2022-11-12T14:41:35.797Z,55.97
2022-11-12T14:44:33.827Z,51.35
2022-11-12T14:47:21.659Z,48.35
2022-11-12T14:50:22.092Z,38.05
2022-11-12T14:53:14.819Z,38.65
2022-11-12T14:56:04.793Z,41.90
2022-11-12T14:58:54.038Z,50.50
2022-11-12T15:02:26.640Z,39.67
2022-11-12T15:04:55.008Z,38.63
2022-11-12T15:07:56.127Z,48.75
2022-11-12T15:10:44.849Z,43.05
2022-11-12T15:13:39.797Z,54.40
2022-11-12T15:16:36.868Z,43.25
2022-11-12T15:19:26.062Z,65.88
2022-11-12T15:22:21.860Z,66.63
2022-11-12T15:25:24.283Z,61.47
2022-11-12T15:28:24.889Z,64.03
2022-11-12T15:31:22.963Z,56.53
2022-11-12T15:34:42.229Z,63.15
2022-11-12T15:37:42.635Z,58.78
2022-11-12T15:40:30.692Z,63.50
2022-11-12T15:43:23.860Z,67.30
2022-11-12T15:46:17.532Z,58.08
2022-11-12T15:49:13.189Z,69.13
2022-11-12T15:51:59.785Z,91.38
2022-11-12T15:54:47.254Z,80.68
2022-11-12T15:57:41.682Z,69.63
2022-11-12T16:03:22.747Z,61.88
2022-11-12T16:06:12.236Z,75.18
2022-11-12T16:08:58.903Z,63.58
2022-11-12T16:11:47.099Z,68.38
2022-11-12T16:14:33.953Z,64.55
2022-11-12T16:17:21.173Z,58.65
2022-11-12T16:20:21.437Z,61.55
2022-11-12T16:23:08.625Z,57.67
2022-11-12T16:25:56.231Z,55.42
2022-11-12T16:28:43.940Z,89.97
2022-11-12T16:31:31.107Z,87.38
2022-11-12T16:34:18.380Z,88.35
2022-11-12T16:37:05.413Z,70.40
2022-11-12T16:39:52.404Z,77.55
2022-11-12T16:42:45.562Z,86.93
2022-11-12T16:45:35.272Z,101.80
2022-11-12T16:48:23.394Z,101.80
2022-11-12T16:51:18.206Z,103.75
2022-11-12T16:54:05.461Z,87.78
2022-11-12T16:56:52.603Z,92.05
2022-11-12T16:59:59.796Z,111.03
2022-11-12T17:02:52.062Z,93.03
2022-11-12T17:05:39.964Z,69.65
2022-11-12T17:08:33.753Z,51.92
2022-11-12T17:11:20.663Z,70.63
2022-11-12T17:14:08.040Z,62.38
2022-11-12T17:16:55.341Z,72.85
2022-11-12T17:19:42.179Z,65.80
2022-11-12T17:22:28.505Z,58.25
2022-11-12T17:25:15.435Z,60.25
2022-11-12T17:28:02.238Z,48.97
2022-11-12T17:30:49.674Z,66.03
2022-11-12T17:33:51.921Z,50.00
2022-11-12T17:36:43.384Z,52.60
2022-11-12T17:39:31.176Z,45.05
2022-11-12T17:42:19.529Z,48.45
2022-11-12T17:45:07.307Z,57.47
2022-11-12T17:47:53.890Z,51.35
2022-11-12T17:50:41.014Z,53.58
2022-11-12T17:53:29.026Z,50.85
2022-11-12T17:56:19.091Z,57.63
2022-11-12T17:59:06.033Z,56.85
2022-11-12T18:01:52.830Z,60.03
2022-11-12T18:04:40.178Z,56.00
2022-11-12T18:07:26.770Z,52.50
2022-11-12T18:10:19.232Z,49.28
2022-11-12T18:13:07.029Z,53.35
2022-11-12T18:15:54.173Z,50.05
2022-11-12T18:18:40.853Z,48.33
2022-11-12T18:21:28.177Z,42.08
2022-11-12T18:24:17.021Z,53.42
2022-11-12T18:27:04.683Z,59.15
2022-11-12T18:29:51.828Z,67.00
2022-11-12T18:32:39.485Z,63.42
2022-11-12T18:35:29.777Z,58.00
2022-11-12T18:38:16.436Z,57.75
2022-11-12T18:41:09.047Z,56.13
2022-11-12T18:43:56.973Z,54.25
2022-11-12T18:46:43.752Z,40.20
2022-11-12T18:49:30.990Z,41.92
2022-11-12T18:52:17.787Z,39.17
2022-11-12T18:55:04.905Z,36.47
2022-11-12T18:57:51.952Z,42.50
2022-11-12T19:00:38.678Z,42.67
2022-11-12T19:03:25.543Z,49.15
2022-11-12T19:06:13.970Z,45.13
2022-11-12T19:09:01.683Z,41.33
2022-11-12T19:11:49.004Z,38.97
2022-11-12T19:14:36.294Z,43.63
2022-11-12T19:17:28.225Z,45.00
2022-11-12T19:23:03.751Z,46.70
2022-11-12T19:25:50.489Z,44.25
2022-11-12T19:28:37.626Z,53.63
2022-11-12T19:31:26.255Z,61.55
2022-11-12T19:34:13.508Z,47.65
2022-11-12T19:40:08.143Z,58.80
2022-11-12T19:42:55.372Z,53.47
2022-11-12T19:45:42.504Z,52.60
2022-11-12T19:48:31.232Z,48.95
2022-11-12T19:51:17.957Z,47.78
2022-11-12T19:54:05.250Z,52.92
2022-11-12T19:56:52.046Z,52.15
2022-11-12T19:59:40.282Z,64.95
2022-11-12T20:02:27.025Z,62.58
2022-11-12T20:05:14.436Z,66.07
2022-11-12T20:08:01.972Z,60.03
2022-11-12T20:10:49.116Z,55.65
2022-11-12T20:13:35.887Z,70.68
2022-11-12T20:16:25.424Z,89.88
2022-11-12T20:19:13.340Z,61.15
2022-11-12T20:22:01.055Z,56.35
2022-11-12T20:24:48.021Z,50.33
2022-11-12T20:27:34.540Z,58.50
2022-11-12T20:30:21.755Z,60.33
2022-11-12T20:33:08.891Z,58.17
2022-11-12T20:36:03.081Z,52.63
2022-11-12T20:38:50.798Z,72.93
2022-11-12T20:41:37.685Z,54.85
2022-11-12T20:44:25.474Z,63.30
2022-11-12T20:47:13.099Z,63.63
2022-11-12T20:50:00.201Z,56.13
2022-11-12T20:52:46.464Z,55.90
2022-11-12T20:55:33.471Z,59.88
2022-11-12T20:58:20.254Z,64.10
2022-11-12T21:01:10.234Z,55.70
2022-11-12T21:03:58.351Z,59.70
2022-11-12T21:06:45.005Z,58.78
2022-11-12T21:09:32.084Z,67.25
2022-11-12T21:12:19.125Z,84.75
2022-11-12T21:15:06.116Z,75.07
2022-11-12T21:17:52.887Z,65.07
2022-11-12T21:20:40.063Z,66.20
2022-11-12T21:23:32.757Z,79.15
2022-11-12T21:26:22.047Z,89.35
2022-11-12T21:29:09.234Z,56.00
2022-11-12T21:31:56.112Z,40.22
2022-11-12T21:34:43.372Z,53.72
2022-11-12T21:37:31.384Z,59.22
2022-11-12T21:40:18.984Z,58.95
2022-11-12T21:43:07.211Z,49.53
2022-11-12T21:45:53.627Z,53.38
2022-11-12T21:48:40.428Z,35.38
2022-11-12T21:51:29.799Z,30.30
2022-11-12T21:54:16.731Z,31.05
2022-11-12T21:57:03.949Z,32.95
2022-11-12T21:59:50.960Z,25.08
2022-11-12T22:02:37.746Z,30.00
2022-11-12T22:05:24.869Z,29.63
2022-11-12T22:08:11.797Z,25.40
2022-11-12T22:11:20.622Z,25.05
2022-11-12T22:14:07.140Z,23.33
2022-11-12T22:16:53.855Z,23.35
2022-11-12T22:19:40.625Z,27.33
2022-11-12T22:22:28.244Z,29.63
2022-11-12T22:25:14.806Z,55.10
2022-11-12T22:28:01.686Z,51.63
2022-11-12T22:30:48.082Z,44.63
2022-11-12T22:33:35.596Z,52.50
2022-11-12T22:36:24.285Z,54.97
2022-11-12T22:39:11.483Z,51.40
2022-11-12T22:41:58.289Z,45.65
2022-11-12T22:44:45.563Z,46.78
2022-11-12T22:47:33.951Z,52.75
2022-11-12T22:50:21.781Z,51.22
2022-11-12T22:53:08.788Z,38.78
2022-11-12T22:55:56.015Z,32.30
2022-11-12T22:58:45.473Z,37.90
2022-11-12T23:01:34.997Z,37.75
2022-11-12T23:04:21.728Z,40.65
2022-11-12T23:07:08.445Z,38.05
2022-11-12T23:09:55.652Z,33.22
2022-11-12T23:12:42.077Z,50.17
2022-11-12T23:15:32.340Z,50.70
2022-11-12T23:18:18.666Z,60.90
2022-11-12T23:21:08.115Z,58.67
2022-11-12T23:23:58.048Z,58.72
2022-11-12T23:26:45.384Z,56.88
2022-11-12T23:29:31.654Z,57.60
2022-11-12T23:32:18.386Z,64.53
2022-11-12T23:35:05.264Z,61.75
2022-11-12T23:37:53.140Z,65.82
2022-11-12T23:40:39.779Z,72.32
2022-11-12T23:43:26.816Z,64.25
2022-11-12T23:46:13.507Z,58.83
2022-11-12T23:49:01.079Z,63.10
2022-11-12T23:51:47.495Z,52.30
2022-11-12T23:54:34.437Z,48.35
2022-11-12T23:57:21.845Z,35.20
